sensor_id;sensor_type;location;lat;lon;timestamp;P1;durP1;ratioP1;P2;durP2;ratioP2
27833;SDS011;15200;50.570;7.244;2022-12-18T00:02:14;46.93;;;20.30;;
27833;SDS011;15200;50.570;7.244;2022-12-18T00:04:41;51.50;;;19.93;;
27833;SDS011;15200;50.570;7.244;2022-12-18T00:07:08;43.20;;;18.43;;
27833;SDS011;15200;50.570;7.244;2022-12-18T00:09:36;45.83;;;20.80;;
27833;SDS011;15200;50.570;7.244;2022-12-18T00:12:03;45.10;;;18.13;;
27833;SDS011;15200;50.570;7.244;2022-12-18T00:14:30;44.10;;;17.87;;
27833;SDS011;15200;50.570;7.244;2022-12-18T00:16:58;43.03;;;17.50;;
27833;SDS011;15200;50.570;7.244;2022-12-18T00:19:26;44.13;;;18.80;;
27833;SDS011;15200;50.570;7.244;2022-12-18T00:21:54;48.53;;;19.80;;
27833;SDS011;15200;50.570;7.244;2022-12-18T00:24:21;43.43;;;18.57;;
27833;SDS011;15200;50.570;7.244;2022-12-18T00:26:48;46.77;;;19.43;;
27833;SDS011;15200;50.570;7.244;2022-12-18T00:29:16;36.30;;;15.73;;
27833;SDS011;15200;50.570;7.244;2022-12-18T00:31:43;43.73;;;18.23;;
27833;SDS011;15200;50.570;7.244;2022-12-18T00:34:11;37.07;;;15.77;;
27833;SDS011;15200;50.570;7.244;2022-12-18T00:36:38;41.57;;;18.83;;
27833;SDS011;15200;50.570;7.244;2022-12-18T00:39:06;42.23;;;19.73;;
27833;SDS011;15200;50.570;7.244;2022-12-18T00:41:34;46.67;;;18.77;;
27833;SDS011;15200;50.570;7.244;2022-12-18T00:44:20;42.10;;;20.23;;
27833;SDS011;15200;50.570;7.244;2022-12-18T00:46:47;42.20;;;16.23;;
27833;SDS011;15200;50.570;7.244;2022-12-18T00:49:16;47.73;;;19.63;;
27833;SDS011;15200;50.570;7.244;2022-12-18T00:52:03;48.67;;;19.07;;
27833;SDS011;15200;50.570;7.244;2022-12-18T00:54:30;43.23;;;18.77;;
27833;SDS011;15200;50.570;7.244;2022-12-18T00:56:58;46.57;;;18.70;;
27833;SDS011;15200;50.570;7.244;2022-12-18T00:59:25;40.87;;;17.87;;
27833;SDS011;15200;50.570;7.244;2022-12-18T01:01:52;47.53;;;18.73;;
27833;SDS011;15200;50.570;7.244;2022-12-18T01:04:20;41.63;;;16.90;;
27833;SDS011;15200;50.570;7.244;2022-12-18T01:06:47;50.23;;;15.67;;
27833;SDS011;15200;50.570;7.244;2022-12-18T01:09:14;46.23;;;17.90;;
27833;SDS011;15200;50.570;7.244;2022-12-18T01:11:41;42.73;;;17.83;;
27833;SDS011;15200;50.570;7.244;2022-12-18T01:14:09;42.77;;;17.23;;
27833;SDS011;15200;50.570;7.244;2022-12-18T01:16:36;41.93;;;17.40;;
27833;SDS011;15200;50.570;7.244;2022-12-18T01:19:03;32.30;;;12.37;;
27833;SDS011;15200;50.570;7.244;2022-12-18T01:21:31;37.63;;;16.43;;
27833;SDS011;15200;50.570;7.244;2022-12-18T01:23:58;40.67;;;17.90;;
27833;SDS011;15200;50.570;7.244;2022-12-18T01:26:25;42.47;;;18.17;;
27833;SDS011;15200;50.570;7.244;2022-12-18T01:31:41;35.57;;;14.40;;
27833;SDS011;15200;50.570;7.244;2022-12-18T01:34:08;49.63;;;17.27;;
27833;SDS011;15200;50.570;7.244;2022-12-18T01:36:37;37.33;;;15.73;;
27833;SDS011;15200;50.570;7.244;2022-12-18T01:39:07;40.27;;;16.97;;
27833;SDS011;15200;50.570;7.244;2022-12-18T01:41:34;36.57;;;16.10;;
27833;SDS011;15200;50.570;7.244;2022-12-18T01:47:06;36.77;;;15.77;;
27833;SDS011;15200;50.570;7.244;2022-12-18T01:49:33;39.13;;;15.47;;
27833;SDS011;15200;50.570;7.244;2022-12-18T01:52:00;38.23;;;16.17;;
27833;SDS011;15200;50.570;7.244;2022-12-18T01:54:28;34.20;;;16.37;;
27833;SDS011;15200;50.570;7.244;2022-12-18T01:56:56;42.30;;;17.20;;
27833;SDS011;15200;50.570;7.244;2022-12-18T01:59:23;41.43;;;16.47;;
27833;SDS011;15200;50.570;7.244;2022-12-18T02:01:50;45.37;;;16.10;;
27833;SDS011;15200;50.570;7.244;2022-12-18T02:04:26;34.90;;;15.93;;
27833;SDS011;15200;50.570;7.244;2022-12-18T02:06:51;38.13;;;16.50;;
27833;SDS011;15200;50.570;7.244;2022-12-18T02:09:19;40.87;;;16.53;;
27833;SDS011;15200;50.570;7.244;2022-12-18T02:11:56;42.77;;;16.30;;
27833;SDS011;15200;50.570;7.244;2022-12-18T02:14:23;42.80;;;16.73;;
27833;SDS011;15200;50.570;7.244;2022-12-18T02:16:59;39.10;;;15.77;;
27833;SDS011;15200;50.570;7.244;2022-12-18T02:24:59;48.80;;;16.20;;
27833;SDS011;15200;50.570;7.244;2022-12-18T02:27:26;44.97;;;17.83;;
27833;SDS011;15200;50.570;7.244;2022-12-18T02:29:54;42.20;;;17.20;;
27833;SDS011;15200;50.570;7.244;2022-12-18T02:32:27;38.43;;;16.37;;
27833;SDS011;15200;50.570;7.244;2022-12-18T02:34:51;38.00;;;15.50;;
27833;SDS011;15200;50.570;7.244;2022-12-18T02:37:39;34.87;;;13.60;;
27833;SDS011;15200;50.570;7.244;2022-12-18T02:40:09;40.93;;;16.07;;
27833;SDS011;15200;50.570;7.244;2022-12-18T02:42:36;36.63;;;15.67;;
27833;SDS011;15200;50.570;7.244;2022-12-18T02:45:03;40.73;;;16.10;;
27833;SDS011;15200;50.570;7.244;2022-12-18T02:47:32;42.63;;;16.60;;
27833;SDS011;15200;50.570;7.244;2022-12-18T02:50:48;35.77;;;15.83;;
27833;SDS011;15200;50.570;7.244;2022-12-18T02:52:35;42.87;;;17.17;;
27833;SDS011;15200;50.570;7.244;2022-12-18T02:55:17;33.20;;;15.70;;
27833;SDS011;15200;50.570;7.244;2022-12-18T03:00:30;42.23;;;16.77;;
27833;SDS011;15200;50.570;7.244;2022-12-18T03:02:56;39.63;;;17.00;;
27833;SDS011;15200;50.570;7.244;2022-12-18T03:05:25;38.60;;;16.33;;
27833;SDS011;15200;50.570;7.244;2022-12-18T03:08:00;36.13;;;16.50;;
27833;SDS011;15200;50.570;7.244;2022-12-18T03:10:48;32.17;;;14.10;;
27833;SDS011;15200;50.570;7.244;2022-12-18T03:13:19;29.93;;;11.60;;
27833;SDS011;15200;50.570;7.244;2022-12-18T03:15:52;38.57;;;16.10;;
27833;SDS011;15200;50.570;7.244;2022-12-18T03:18:29;37.90;;;15.83;;
27833;SDS011;15200;50.570;7.244;2022-12-18T03:20:57;43.70;;;15.13;;
27833;SDS011;15200;50.570;7.244;2022-12-18T03:23:26;40.83;;;16.17;;
27833;SDS011;15200;50.570;7.244;2022-12-18T03:25:55;35.87;;;17.23;;
27833;SDS011;15200;50.570;7.244;2022-12-18T03:28:43;34.17;;;15.40;;
27833;SDS011;15200;50.570;7.244;2022-12-18T03:31:11;39.50;;;16.50;;
27833;SDS011;15200;50.570;7.244;2022-12-18T03:33:50;34.50;;;15.57;;
27833;SDS011;15200;50.570;7.244;2022-12-18T03:36:16;38.70;;;16.83;;
27833;SDS011;15200;50.570;7.244;2022-12-18T03:38:43;36.97;;;16.17;;
27833;SDS011;15200;50.570;7.244;2022-12-18T03:41:14;35.93;;;15.23;;
27833;SDS011;15200;50.570;7.244;2022-12-18T03:44:02;35.27;;;14.30;;
27833;SDS011;15200;50.570;7.244;2022-12-18T03:49:20;38.07;;;14.10;;
27833;SDS011;15200;50.570;7.244;2022-12-18T03:51:50;34.23;;;13.33;;
27833;SDS011;15200;50.570;7.244;2022-12-18T03:54:17;41.07;;;15.47;;
27833;SDS011;15200;50.570;7.244;2022-12-18T03:56:49;39.27;;;15.70;;
27833;SDS011;15200;50.570;7.244;2022-12-18T03:59:17;34.13;;;15.87;;
27833;SDS011;15200;50.570;7.244;2022-12-18T04:01:46;33.10;;;14.47;;
27833;SDS011;15200;50.570;7.244;2022-12-18T04:04:14;43.13;;;16.90;;
27833;SDS011;15200;50.570;7.244;2022-12-18T04:06:43;26.97;;;13.10;;
27833;SDS011;15200;50.570;7.244;2022-12-18T04:09:32;39.17;;;17.40;;
27833;SDS011;15200;50.570;7.244;2022-12-18T04:12:00;43.67;;;16.27;;
27833;SDS011;15200;50.570;7.244;2022-12-18T04:14:27;37.30;;;16.10;;
27833;SDS011;15200;50.570;7.244;2022-12-18T04:16:54;39.43;;;16.23;;
27833;SDS011;15200;50.570;7.244;2022-12-18T04:19:22;40.50;;;15.77;;
27833;SDS011;15200;50.570;7.244;2022-12-18T04:21:49;37.83;;;16.80;;
27833;SDS011;15200;50.570;7.244;2022-12-18T04:24:16;38.57;;;14.70;;
27833;SDS011;15200;50.570;7.244;2022-12-18T04:26:44;37.90;;;14.07;;
27833;SDS011;15200;50.570;7.244;2022-12-18T04:29:11;32.60;;;15.57;;
27833;SDS011;15200;50.570;7.244;2022-12-18T04:31:38;42.70;;;16.30;;
27833;SDS011;15200;50.570;7.244;2022-12-18T04:34:06;40.53;;;16.43;;
27833;SDS011;15200;50.570;7.244;2022-12-18T04:36:33;42.63;;;17.00;;
27833;SDS011;15200;50.570;7.244;2022-12-18T04:39:00;37.53;;;15.67;;
27833;SDS011;15200;50.570;7.244;2022-12-18T04:41:27;33.93;;;14.50;;
27833;SDS011;15200;50.570;7.244;2022-12-18T04:43:55;43.43;;;17.00;;
27833;SDS011;15200;50.570;7.244;2022-12-18T04:46:22;39.83;;;15.20;;
27833;SDS011;15200;50.570;7.244;2022-12-18T04:48:49;36.70;;;15.10;;
27833;SDS011;15200;50.570;7.244;2022-12-18T04:54:03;38.37;;;16.43;;
27833;SDS011;15200;50.570;7.244;2022-12-18T04:56:31;40.03;;;16.33;;
27833;SDS011;15200;50.570;7.244;2022-12-18T04:59:19;29.40;;;12.30;;
27833;SDS011;15200;50.570;7.244;2022-12-18T05:01:46;34.87;;;16.27;;
27833;SDS011;15200;50.570;7.244;2022-12-18T05:04:13;33.43;;;15.07;;
27833;SDS011;15200;50.570;7.244;2022-12-18T05:06:41;36.37;;;16.67;;
27833;SDS011;15200;50.570;7.244;2022-12-18T05:09:08;41.43;;;15.60;;
27833;SDS011;15200;50.570;7.244;2022-12-18T05:11:35;16.47;;;8.47;;
27833;SDS011;15200;50.570;7.244;2022-12-18T05:14:03;32.27;;;14.10;;
27833;SDS011;15200;50.570;7.244;2022-12-18T05:16:30;33.93;;;14.60;;
27833;SDS011;15200;50.570;7.244;2022-12-18T05:18:57;39.40;;;14.77;;
27833;SDS011;15200;50.570;7.244;2022-12-18T05:21:25;32.50;;;13.10;;
27833;SDS011;15200;50.570;7.244;2022-12-18T05:23:52;29.53;;;12.33;;
27833;SDS011;15200;50.570;7.244;2022-12-18T05:26:19;30.40;;;12.10;;
27833;SDS011;15200;50.570;7.244;2022-12-18T05:28:47;32.10;;;13.77;;
27833;SDS011;15200;50.570;7.244;2022-12-18T05:31:14;38.80;;;15.30;;
27833;SDS011;15200;50.570;7.244;2022-12-18T05:33:41;24.43;;;9.67;;
27833;SDS011;15200;50.570;7.244;2022-12-18T05:36:09;38.33;;;14.50;;
27833;SDS011;15200;50.570;7.244;2022-12-18T05:38:38;34.03;;;15.70;;
27833;SDS011;15200;50.570;7.244;2022-12-18T05:41:06;29.90;;;14.33;;
27833;SDS011;15200;50.570;7.244;2022-12-18T05:43:34;34.03;;;14.93;;
27833;SDS011;15200;50.570;7.244;2022-12-18T05:46:08;25.37;;;11.77;;
27833;SDS011;15200;50.570;7.244;2022-12-18T05:48:58;24.00;;;10.53;;
27833;SDS011;15200;50.570;7.244;2022-12-18T05:51:24;36.80;;;13.67;;
27833;SDS011;15200;50.570;7.244;2022-12-18T05:53:51;36.27;;;14.60;;
27833;SDS011;15200;50.570;7.244;2022-12-18T05:56:21;33.30;;;15.50;;
27833;SDS011;15200;50.570;7.244;2022-12-18T05:58:50;34.57;;;14.17;;
27833;SDS011;15200;50.570;7.244;2022-12-18T06:01:17;36.90;;;14.57;;
27833;SDS011;15200;50.570;7.244;2022-12-18T06:03:45;29.50;;;13.33;;
27833;SDS011;15200;50.570;7.244;2022-12-18T06:06:13;38.67;;;14.27;;
27833;SDS011;15200;50.570;7.244;2022-12-18T06:08:41;30.13;;;13.70;;
27833;SDS011;15200;50.570;7.244;2022-12-18T06:11:08;23.50;;;11.63;;
27833;SDS011;15200;50.570;7.244;2022-12-18T06:13:36;39.73;;;16.13;;
27833;SDS011;15200;50.570;7.244;2022-12-18T06:16:04;37.07;;;15.23;;
27833;SDS011;15200;50.570;7.244;2022-12-18T06:18:32;33.77;;;14.87;;
27833;SDS011;15200;50.570;7.244;2022-12-18T06:21:19;27.80;;;14.27;;
27833;SDS011;15200;50.570;7.244;2022-12-18T06:23:47;29.47;;;13.30;;
27833;SDS011;15200;50.570;7.244;2022-12-18T06:26:14;34.93;;;14.90;;
27833;SDS011;15200;50.570;7.244;2022-12-18T06:28:41;38.13;;;14.27;;
27833;SDS011;15200;50.570;7.244;2022-12-18T06:31:09;30.60;;;14.93;;
27833;SDS011;15200;50.570;7.244;2022-12-18T06:33:37;30.13;;;14.17;;
27833;SDS011;15200;50.570;7.244;2022-12-18T06:36:08;31.23;;;14.57;;
27833;SDS011;15200;50.570;7.244;2022-12-18T06:38:38;32.10;;;13.70;;
27833;SDS011;15200;50.570;7.244;2022-12-18T06:41:13;33.23;;;14.13;;
27833;SDS011;15200;50.570;7.244;2022-12-18T06:43:36;32.93;;;13.93;;
27833;SDS011;15200;50.570;7.244;2022-12-18T06:46:04;34.67;;;15.20;;
27833;SDS011;15200;50.570;7.244;2022-12-18T06:48:32;31.17;;;14.03;;
27833;SDS011;15200;50.570;7.244;2022-12-18T06:50:59;33.77;;;15.57;;
27833;SDS011;15200;50.570;7.244;2022-12-18T06:53:27;32.70;;;13.00;;
27833;SDS011;15200;50.570;7.244;2022-12-18T06:56:04;28.17;;;14.10;;
27833;SDS011;15200;50.570;7.244;2022-12-18T06:58:48;23.53;;;11.10;;
27833;SDS011;15200;50.570;7.244;2022-12-18T07:01:16;26.30;;;11.67;;
27833;SDS011;15200;50.570;7.244;2022-12-18T07:03:43;38.63;;;15.83;;
27833;SDS011;15200;50.570;7.244;2022-12-18T07:06:14;34.43;;;15.10;;
27833;SDS011;15200;50.570;7.244;2022-12-18T07:08:42;33.00;;;14.80;;
27833;SDS011;15200;50.570;7.244;2022-12-18T07:11:09;28.67;;;12.77;;
27833;SDS011;15200;50.570;7.244;2022-12-18T07:13:36;31.47;;;13.97;;
27833;SDS011;15200;50.570;7.244;2022-12-18T07:16:09;32.60;;;15.13;;
27833;SDS011;15200;50.570;7.244;2022-12-18T07:18:33;31.90;;;14.80;;
27833;SDS011;15200;50.570;7.244;2022-12-18T07:21:04;36.80;;;15.57;;
27833;SDS011;15200;50.570;7.244;2022-12-18T07:23:51;32.80;;;14.77;;
27833;SDS011;15200;50.570;7.244;2022-12-18T07:26:19;28.70;;;14.40;;
27833;SDS011;15200;50.570;7.244;2022-12-18T07:28:47;32.43;;;13.60;;
27833;SDS011;15200;50.570;7.244;2022-12-18T07:31:16;30.03;;;14.40;;
27833;SDS011;15200;50.570;7.244;2022-12-18T07:33:44;21.60;;;10.97;;
27833;SDS011;15200;50.570;7.244;2022-12-18T07:36:11;27.23;;;12.40;;
27833;SDS011;15200;50.570;7.244;2022-12-18T07:38:39;38.50;;;15.87;;
27833;SDS011;15200;50.570;7.244;2022-12-18T07:41:07;35.60;;;15.30;;
27833;SDS011;15200;50.570;7.244;2022-12-18T07:43:35;36.73;;;15.37;;
27833;SDS011;15200;50.570;7.244;2022-12-18T07:46:03;33.67;;;14.93;;
27833;SDS011;15200;50.570;7.244;2022-12-18T07:48:31;30.53;;;14.60;;
27833;SDS011;15200;50.570;7.244;2022-12-18T07:50:58;31.70;;;15.20;;
27833;SDS011;15200;50.570;7.244;2022-12-18T07:53:46;36.90;;;15.80;;
27833;SDS011;15200;50.570;7.244;2022-12-18T07:56:13;36.97;;;14.93;;
27833;SDS011;15200;50.570;7.244;2022-12-18T07:58:41;30.63;;;13.67;;
27833;SDS011;15200;50.570;7.244;2022-12-18T08:01:09;35.47;;;14.73;;
27833;SDS011;15200;50.570;7.244;2022-12-18T08:03:37;37.83;;;16.13;;
27833;SDS011;15200;50.570;7.244;2022-12-18T08:06:05;30.23;;;14.53;;
27833;SDS011;15200;50.570;7.244;2022-12-18T08:08:33;32.03;;;14.63;;
27833;SDS011;15200;50.570;7.244;2022-12-18T08:11:01;32.87;;;14.37;;
27833;SDS011;15200;50.570;7.244;2022-12-18T08:13:28;38.77;;;16.37;;
27833;SDS011;15200;50.570;7.244;2022-12-18T08:15:56;32.73;;;15.03;;
27833;SDS011;15200;50.570;7.244;2022-12-18T08:18:43;33.53;;;13.43;;
27833;SDS011;15200;50.570;7.244;2022-12-18T08:21:12;31.87;;;15.63;;
27833;SDS011;15200;50.570;7.244;2022-12-18T08:23:41;29.10;;;15.00;;
27833;SDS011;15200;50.570;7.244;2022-12-18T08:26:08;30.97;;;12.63;;
27833;SDS011;15200;50.570;7.244;2022-12-18T08:28:36;34.17;;;15.10;;
27833;SDS011;15200;50.570;7.244;2022-12-18T08:31:03;35.00;;;14.60;;
27833;SDS011;15200;50.570;7.244;2022-12-18T08:33:30;28.57;;;14.03;;
27833;SDS011;15200;50.570;7.244;2022-12-18T08:35:58;26.57;;;12.60;;
27833;SDS011;15200;50.570;7.244;2022-12-18T08:38:26;24.93;;;12.30;;
27833;SDS011;15200;50.570;7.244;2022-12-18T08:40:59;24.53;;;11.77;;
27833;SDS011;15200;50.570;7.244;2022-12-18T08:43:47;31.17;;;15.87;;
27833;SDS011;15200;50.570;7.244;2022-12-18T08:46:34;32.77;;;14.70;;
27833;SDS011;15200;50.570;7.244;2022-12-18T08:49:01;25.53;;;13.30;;
27833;SDS011;15200;50.570;7.244;2022-12-18T08:51:29;24.77;;;12.93;;
27833;SDS011;15200;50.570;7.244;2022-12-18T08:53:56;34.73;;;15.37;;
27833;SDS011;15200;50.570;7.244;2022-12-18T08:56:23;30.70;;;15.40;;
27833;SDS011;15200;50.570;7.244;2022-12-18T08:58:55;28.57;;;14.20;;
27833;SDS011;15200;50.570;7.244;2022-12-18T09:01:20;27.03;;;11.93;;
27833;SDS011;15200;50.570;7.244;2022-12-18T09:03:48;34.97;;;15.13;;
27833;SDS011;15200;50.570;7.244;2022-12-18T09:06:16;27.67;;;13.70;;
27833;SDS011;15200;50.570;7.244;2022-12-18T09:08:44;26.67;;;13.30;;
27833;SDS011;15200;50.570;7.244;2022-12-18T09:11:18;30.20;;;13.80;;
27833;SDS011;15200;50.570;7.244;2022-12-18T09:13:43;29.73;;;13.63;;
27833;SDS011;15200;50.570;7.244;2022-12-18T09:16:10;29.57;;;14.27;;
27833;SDS011;15200;50.570;7.244;2022-12-18T09:18:38;20.63;;;10.17;;
27833;SDS011;15200;50.570;7.244;2022-12-18T09:21:09;28.17;;;14.27;;
27833;SDS011;15200;50.570;7.244;2022-12-18T09:23:36;25.73;;;11.93;;
27833;SDS011;15200;50.570;7.244;2022-12-18T09:26:03;26.27;;;13.30;;
27833;SDS011;15200;50.570;7.244;2022-12-18T09:28:31;26.77;;;11.90;;
27833;SDS011;15200;50.570;7.244;2022-12-18T09:30:58;30.00;;;13.67;;
27833;SDS011;15200;50.570;7.244;2022-12-18T09:33:25;26.50;;;12.90;;
27833;SDS011;15200;50.570;7.244;2022-12-18T09:35:53;24.80;;;11.27;;
27833;SDS011;15200;50.570;7.244;2022-12-18T09:38:20;30.73;;;15.03;;
27833;SDS011;15200;50.570;7.244;2022-12-18T09:40:49;27.93;;;12.67;;
27833;SDS011;15200;50.570;7.244;2022-12-18T09:43:19;22.60;;;11.93;;
27833;SDS011;15200;50.570;7.244;2022-12-18T09:45:50;17.77;;;10.57;;
27833;SDS011;15200;50.570;7.244;2022-12-18T09:48:19;23.57;;;10.30;;
27833;SDS011;15200;50.570;7.244;2022-12-18T09:50:47;27.97;;;12.90;;
27833;SDS011;15200;50.570;7.244;2022-12-18T09:53:16;30.83;;;14.30;;
27833;SDS011;15200;50.570;7.244;2022-12-18T09:55:45;30.80;;;14.90;;
27833;SDS011;15200;50.570;7.244;2022-12-18T09:58:29;25.27;;;14.03;;
27833;SDS011;15200;50.570;7.244;2022-12-18T10:00:57;26.03;;;11.43;;
27833;SDS011;15200;50.570;7.244;2022-12-18T10:03:24;30.43;;;14.53;;
27833;SDS011;15200;50.570;7.244;2022-12-18T10:08:40;26.40;;;13.93;;
27833;SDS011;15200;50.570;7.244;2022-12-18T10:13:56;27.20;;;14.03;;
27833;SDS011;15200;50.570;7.244;2022-12-18T10:16:43;26.27;;;13.23;;
27833;SDS011;15200;50.570;7.244;2022-12-18T10:22:03;27.63;;;14.57;;
27833;SDS011;15200;50.570;7.244;2022-12-18T10:24:42;28.67;;;13.10;;
27833;SDS011;15200;50.570;7.244;2022-12-18T10:27:17;29.70;;;15.53;;
27833;SDS011;15200;50.570;7.244;2022-12-18T10:29:45;23.37;;;12.43;;
27833;SDS011;15200;50.570;7.244;2022-12-18T10:32:13;28.87;;;14.47;;
27833;SDS011;15200;50.570;7.244;2022-12-18T10:34:41;22.43;;;11.00;;
27833;SDS011;15200;50.570;7.244;2022-12-18T10:37:10;29.87;;;13.70;;
27833;SDS011;15200;50.570;7.244;2022-12-18T10:40:11;30.37;;;14.63;;
27833;SDS011;15200;50.570;7.244;2022-12-18T10:42:34;24.17;;;13.47;;
27833;SDS011;15200;50.570;7.244;2022-12-18T10:45:09;23.50;;;11.30;;
27833;SDS011;15200;50.570;7.244;2022-12-18T10:47:41;23.33;;;13.57;;
27833;SDS011;15200;50.570;7.244;2022-12-18T10:50:10;26.87;;;14.37;;
27833;SDS011;15200;50.570;7.244;2022-12-18T10:52:35;30.20;;;15.07;;
27833;SDS011;15200;50.570;7.244;2022-12-18T10:55:03;24.80;;;12.87;;
27833;SDS011;15200;50.570;7.244;2022-12-18T10:57:32;29.57;;;14.90;;
27833;SDS011;15200;50.570;7.244;2022-12-18T11:00:01;26.90;;;14.27;;
27833;SDS011;15200;50.570;7.244;2022-12-18T11:02:35;26.50;;;13.93;;
27833;SDS011;15200;50.570;7.244;2022-12-18T11:05:22;24.57;;;12.00;;
27833;SDS011;15200;50.570;7.244;2022-12-18T11:07:48;26.63;;;14.27;;
27833;SDS011;15200;50.570;7.244;2022-12-18T11:10:36;27.03;;;13.67;;
27833;SDS011;15200;50.570;7.244;2022-12-18T11:13:12;21.73;;;11.77;;
27833;SDS011;15200;50.570;7.244;2022-12-18T11:15:36;29.50;;;14.63;;
27833;SDS011;15200;50.570;7.244;2022-12-18T11:18:13;20.90;;;11.40;;
27833;SDS011;15200;50.570;7.244;2022-12-18T11:20:35;25.53;;;12.83;;
27833;SDS011;15200;50.570;7.244;2022-12-18T11:23:04;29.07;;;15.40;;
27833;SDS011;15200;50.570;7.244;2022-12-18T11:25:32;29.73;;;13.00;;
27833;SDS011;15200;50.570;7.244;2022-12-18T11:28:05;30.60;;;14.80;;
27833;SDS011;15200;50.570;7.244;2022-12-18T11:30:33;29.37;;;14.47;;
27833;SDS011;15200;50.570;7.244;2022-12-18T11:33:05;29.90;;;13.47;;
27833;SDS011;15200;50.570;7.244;2022-12-18T11:36:02;32.60;;;15.57;;
27833;SDS011;15200;50.570;7.244;2022-12-18T11:38:49;31.73;;;15.90;;
27833;SDS011;15200;50.570;7.244;2022-12-18T11:41:38;26.47;;;15.30;;
27833;SDS011;15200;50.570;7.244;2022-12-18T11:44:09;27.27;;;13.40;;
27833;SDS011;15200;50.570;7.244;2022-12-18T11:46:39;30.20;;;14.33;;
27833;SDS011;15200;50.570;7.244;2022-12-18T11:49:11;30.40;;;15.63;;
27833;SDS011;15200;50.570;7.244;2022-12-18T11:51:48;30.80;;;15.10;;
27833;SDS011;15200;50.570;7.244;2022-12-18T11:54:14;21.67;;;11.60;;
27833;SDS011;15200;50.570;7.244;2022-12-18T11:56:49;31.37;;;14.80;;
27833;SDS011;15200;50.570;7.244;2022-12-18T12:02:28;30.17;;;13.83;;
27833;SDS011;15200;50.570;7.244;2022-12-18T12:05:03;18.70;;;9.47;;
27833;SDS011;15200;50.570;7.244;2022-12-18T12:10:28;30.33;;;15.17;;
27833;SDS011;15200;50.570;7.244;2022-12-18T12:15:58;32.00;;;15.37;;
27833;SDS011;15200;50.570;7.244;2022-12-18T12:23:52;33.20;;;14.47;;
27833;SDS011;15200;50.570;7.244;2022-12-18T12:26:21;26.73;;;14.80;;
27833;SDS011;15200;50.570;7.244;2022-12-18T12:31:28;29.53;;;15.10;;
27833;SDS011;15200;50.570;7.244;2022-12-18T12:33:57;34.17;;;15.33;;
27833;SDS011;15200;50.570;7.244;2022-12-18T12:36:28;29.17;;;15.67;;
27833;SDS011;15200;50.570;7.244;2022-12-18T12:38:55;32.40;;;15.43;;
27833;SDS011;15200;50.570;7.244;2022-12-18T12:41:26;29.23;;;14.57;;
27833;SDS011;15200;50.570;7.244;2022-12-18T12:44:14;33.40;;;15.50;;
27833;SDS011;15200;50.570;7.244;2022-12-18T12:46:42;27.13;;;13.40;;
27833;SDS011;15200;50.570;7.244;2022-12-18T12:49:11;25.10;;;14.43;;
27833;SDS011;15200;50.570;7.244;2022-12-18T12:51:39;34.07;;;17.03;;
27833;SDS011;15200;50.570;7.244;2022-12-18T12:54:25;34.80;;;16.90;;
27833;SDS011;15200;50.570;7.244;2022-12-18T12:59:47;23.03;;;12.83;;
27833;SDS011;15200;50.570;7.244;2022-12-18T13:02:48;30.13;;;15.63;;
27833;SDS011;15200;50.570;7.244;2022-12-18T13:05:18;30.53;;;15.07;;
27833;SDS011;15200;50.570;7.244;2022-12-18T13:07:49;29.57;;;14.77;;
27833;SDS011;15200;50.570;7.244;2022-12-18T13:15:42;28.40;;;14.80;;
27833;SDS011;15200;50.570;7.244;2022-12-18T13:18:30;28.27;;;13.07;;
27833;SDS011;15200;50.570;7.244;2022-12-18T13:20:45;34.13;;;16.40;;
27833;SDS011;15200;50.570;7.244;2022-12-18T13:25:57;27.23;;;13.97;;
27833;SDS011;15200;50.570;7.244;2022-12-18T13:31:10;26.77;;;14.27;;
27833;SDS011;15200;50.570;7.244;2022-12-18T13:33:39;29.40;;;14.53;;
27833;SDS011;15200;50.570;7.244;2022-12-18T13:36:27;32.43;;;17.07;;
27833;SDS011;15200;50.570;7.244;2022-12-18T13:39:10;32.67;;;15.97;;
27833;SDS011;15200;50.570;7.244;2022-12-18T13:41:38;33.83;;;15.97;;
27833;SDS011;15200;50.570;7.244;2022-12-18T13:46:52;34.57;;;17.37;;
27833;SDS011;15200;50.570;7.244;2022-12-18T13:49:21;32.73;;;17.00;;
27833;SDS011;15200;50.570;7.244;2022-12-18T13:52:18;34.90;;;17.70;;
27833;SDS011;15200;50.570;7.244;2022-12-18T13:54:40;31.40;;;17.13;;
27833;SDS011;15200;50.570;7.244;2022-12-18T13:57:27;32.07;;;16.17;;
27833;SDS011;15200;50.570;7.244;2022-12-18T14:02:44;33.43;;;17.40;;
27833;SDS011;15200;50.570;7.244;2022-12-18T14:05:30;33.30;;;16.63;;
27833;SDS011;15200;50.570;7.244;2022-12-18T14:08:17;32.67;;;16.60;;
27833;SDS011;15200;50.570;7.244;2022-12-18T14:10:45;33.17;;;17.60;;
27833;SDS011;15200;50.570;7.244;2022-12-18T14:13:19;43.23;;;19.93;;
27833;SDS011;15200;50.570;7.244;2022-12-18T14:15:42;34.30;;;17.67;;
27833;SDS011;15200;50.570;7.244;2022-12-18T14:21:02;35.80;;;17.77;;
27833;SDS011;15200;50.570;7.244;2022-12-18T14:23:34;30.80;;;16.03;;
27833;SDS011;15200;50.570;7.244;2022-12-18T14:26:03;34.20;;;17.60;;
27833;SDS011;15200;50.570;7.244;2022-12-18T14:28:31;34.07;;;18.83;;
27833;SDS011;15200;50.570;7.244;2022-12-18T14:30:58;34.60;;;18.23;;
27833;SDS011;15200;50.570;7.244;2022-12-18T14:33:26;36.27;;;17.13;;
27833;SDS011;15200;50.570;7.244;2022-12-18T14:35:55;33.37;;;17.67;;
27833;SDS011;15200;50.570;7.244;2022-12-18T14:38:25;35.60;;;17.53;;
27833;SDS011;15200;50.570;7.244;2022-12-18T14:40:53;41.83;;;18.57;;
27833;SDS011;15200;50.570;7.244;2022-12-18T14:43:20;38.27;;;18.30;;
27833;SDS011;15200;50.570;7.244;2022-12-18T14:45:48;30.13;;;16.00;;
27833;SDS011;15200;50.570;7.244;2022-12-18T14:48:17;34.73;;;18.50;;
27833;SDS011;15200;50.570;7.244;2022-12-18T14:50:45;34.57;;;17.67;;
27833;SDS011;15200;50.570;7.244;2022-12-18T14:53:22;35.10;;;16.97;;
27833;SDS011;15200;50.570;7.244;2022-12-18T14:59:04;33.20;;;15.70;;
27833;SDS011;15200;50.570;7.244;2022-12-18T15:01:34;39.03;;;16.93;;
27833;SDS011;15200;50.570;7.244;2022-12-18T15:04:02;34.97;;;18.17;;
27833;SDS011;15200;50.570;7.244;2022-12-18T15:06:33;37.30;;;18.63;;
27833;SDS011;15200;50.570;7.244;2022-12-18T15:09:03;33.03;;;18.10;;
27833;SDS011;15200;50.570;7.244;2022-12-18T15:11:49;33.80;;;16.30;;
27833;SDS011;15200;50.570;7.244;2022-12-18T15:14:30;37.53;;;17.87;;
27833;SDS011;15200;50.570;7.244;2022-12-18T15:16:53;33.53;;;17.03;;
27833;SDS011;15200;50.570;7.244;2022-12-18T15:19:21;32.93;;;17.87;;
27833;SDS011;15200;50.570;7.244;2022-12-18T15:21:49;34.83;;;16.57;;
27833;SDS011;15200;50.570;7.244;2022-12-18T15:24:17;33.37;;;17.93;;
27833;SDS011;15200;50.570;7.244;2022-12-18T15:26:45;33.80;;;17.83;;
27833;SDS011;15200;50.570;7.244;2022-12-18T15:29:20;37.43;;;17.90;;
27833;SDS011;15200;50.570;7.244;2022-12-18T15:32:17;38.40;;;20.63;;
27833;SDS011;15200;50.570;7.244;2022-12-18T15:34:39;26.60;;;12.63;;
27833;SDS011;15200;50.570;7.244;2022-12-18T15:37:07;45.27;;;16.00;;
27833;SDS011;15200;50.570;7.244;2022-12-18T15:39:35;38.70;;;18.47;;
27833;SDS011;15200;50.570;7.244;2022-12-18T15:42:02;32.93;;;17.13;;
27833;SDS011;15200;50.570;7.244;2022-12-18T15:44:47;28.97;;;15.40;;
27833;SDS011;15200;50.570;7.244;2022-12-18T15:47:14;37.33;;;18.40;;
27833;SDS011;15200;50.570;7.244;2022-12-18T15:49:42;30.17;;;16.90;;
27833;SDS011;15200;50.570;7.244;2022-12-18T15:52:09;35.30;;;18.50;;